Time;durP1;ratioP1;P1;durP2;ratioP2;P2;SDS_P1;SDS_P2;PMS_P1;PMS_P2;Temp;Humidity;BMP_temperature;BMP_pressure;BME280_temperature;BME280_humidity;BME280_pressure;Samples;Min_cycle;Max_cycle;Signal;HPM_P1;HPM_P2
2022/05/19 00:00:27;;;;;;;8.82;6.18;;;;;;;15.19;59.74;101310.84;5012953;28;20046;-78
2022/05/19 00:02:52;;;;;;;9.13;6.47;;;;;;;15.17;59.56;101307.34;5016286;28;20033;-78
2022/05/19 00:05:19;;;;;;;7.00;5.28;;;;;;;15.13;59.59;101309.16;5010537;28;20057;-78
2022/05/19 00:07:44;;;;;;;8.98;5.13;;;;;;;15.11;59.77;101307.41;5010581;28;20029;-78
2022/05/19 00:10:10;;;;;;;6.13;4.38;;;;;;;15.08;60.06;101307.44;5014214;28;20045;-78
2022/05/19 00:12:35;;;;;;;7.93;4.50;;;;;;;15.01;60.07;101305.75;5028275;28;20083;-78
2022/05/19 00:15:01;;;;;;;7.20;4.70;;;;;;;14.87;60.31;101304.16;5003006;28;20096;-78
2022/05/19 00:17:26;;;;;;;8.32;4.57;;;;;;;14.79;61.19;101307.81;5012256;28;20093;-78
2022/05/19 00:19:52;;;;;;;6.50;4.80;;;;;;;14.73;61.25;101311.41;5014877;28;20505;-78
2022/05/19 00:22:18;;;;;;;6.38;5.03;;;;;;;14.66;61.35;101301.72;5004601;28;20030;-78
2022/05/19 00:24:43;;;;;;;5.85;4.65;;;;;;;14.61;61.51;101307.09;5014521;28;20053;-78
2022/05/19 00:27:09;;;;;;;6.72;4.43;;;;;;;14.59;62.18;101303.59;5015368;28;20029;-78
2022/05/19 00:29:34;;;;;;;6.07;4.40;;;;;;;14.58;61.72;101293.84;5012306;28;20065;-77
2022/05/19 00:32:00;;;;;;;6.53;4.60;;;;;;;14.56;61.51;101292.09;5014489;28;20038;-78
2022/05/19 00:34:25;;;;;;;6.63;3.58;;;;;;;14.57;61.53;101296.53;5004346;28;20030;-78
2022/05/19 00:36:58;;;;;;;6.72;4.35;;;;;;;14.56;61.53;101290.31;5015795;28;20033;-78
2022/05/19 00:39:23;;;;;;;8.18;4.50;;;;;;;14.53;60.81;101292.13;5006484;28;20046;-78
2022/05/19 00:42:43;;;;;;;9.93;5.03;;;;;;;14.49;61.43;101288.59;5027821;28;20030;-78
2022/05/19 00:44:34;;;;;;;8.55;4.30;;;;;;;14.43;61.42;101280.69;5004175;28;20037;-78
2022/05/19 00:47:01;;;;;;;5.97;4.60;;;;;;;14.43;61.27;101278.91;5011491;28;20034;-78
2022/05/19 00:49:31;;;;;;;7.30;4.43;;;;;;;14.39;61.44;101282.50;5008792;28;20042;-78
2022/05/19 00:52:01;;;;;;;6.22;4.82;;;;;;;14.35;61.63;101285.19;5013709;28;20036;-79
2022/05/19 00:54:32;;;;;;;6.30;3.97;;;;;;;14.32;61.57;101275.47;5015152;28;20033;-78
2022/05/19 00:57:08;;;;;;;5.45;4.22;;;;;;;14.31;61.57;101278.16;5008910;28;20413;-78
2022/05/19 00:59:59;;;;;;;6.57;4.13;;;;;;;14.27;61.74;101282.59;5014297;28;20034;-78
2022/05/19 01:02:30;;;;;;;5.75;3.78;;;;;;;14.22;61.91;101274.69;5020992;28;20072;-78
2022/05/19 01:05:10;;;;;;;5.88;3.97;;;;;;;14.16;62.37;101281.84;5012634;28;20066;-78
2022/05/19 01:07:54;;;;;;;6.40;4.63;;;;;;;14.07;62.93;101281.91;5013350;28;20108;-77
2022/05/19 01:10:20;;;;;;;6.03;3.92;;;;;;;13.96;63.32;101288.22;5025820;28;20038;-78
2022/05/19 01:12:48;;;;;;;7.10;3.95;;;;;;;13.94;62.66;101278.50;5012119;28;20096;-78
2022/05/19 01:15:14;;;;;;;5.40;3.80;;;;;;;13.91;63.30;101274.09;5003347;28;20046;-78
2022/05/19 01:17:40;;;;;;;5.80;4.22;;;;;;;13.84;63.75;101272.38;5012292;28;20038;-78
2022/05/19 01:20:14;;;;;;;5.65;3.90;;;;;;;13.85;63.47;101267.94;4997575;28;20040;-78
2022/05/19 01:22:58;;;;;;;8.07;4.05;;;;;;;13.84;62.97;101272.38;5009966;28;20080;-78
2022/05/19 01:25:29;;;;;;;5.60;3.92;;;;;;;13.82;62.91;101268.84;5012834;28;20065;-78
2022/05/19 01:27:55;;;;;;;6.40;4.13;;;;;;;13.81;63.07;101261.78;5010955;28;20034;-78
2022/05/19 01:30:20;;;;;;;7.32;4.38;;;;;;;13.77;63.29;101263.56;5009185;28;20040;-78
2022/05/19 01:32:46;;;;;;;6.68;3.63;;;;;;;13.74;63.46;101254.75;4997780;28;20038;-78
2022/05/19 01:35:12;;;;;;;5.43;3.60;;;;;;;13.73;63.82;101259.19;5014314;28;20042;-77
2022/05/19 01:37:38;;;;;;;6.95;3.70;;;;;;;13.70;63.69;101258.31;5007115;28;20061;-78
2022/05/19 01:40:26;;;;;;;7.55;4.10;;;;;;;13.68;63.95;101257.47;5012691;28;20034;-78
2022/05/19 01:43:10;;;;;;;6.03;4.18;;;;;;;13.64;63.15;101253.06;5025367;28;20050;-79
2022/05/19 01:45:50;;;;;;;6.13;4.45;;;;;;;13.59;62.89;101255.75;5010677;28;20121;-78
2022/05/19 01:48:58;;;;;;;6.35;4.32;;;;;;;13.57;64.44;101253.13;5001653;28;20100;-78
2022/05/19 01:51:38;;;;;;;7.07;4.30;;;;;;;13.52;64.32;101262.00;5021759;28;20034;-78
2022/05/19 01:54:18;;;;;;;7.10;4.07;;;;;;;13.50;63.99;101251.41;4995456;28;20199;-77
2022/05/19 01:56:56;;;;;;;6.93;3.58;;;;;;;13.49;63.54;101252.28;5007482;28;20085;-77
2022/05/19 01:59:32;;;;;;;4.95;3.80;;;;;;;13.49;63.26;101260.25;5003400;28;20405;-78
2022/05/19 02:02:09;;;;;;;5.95;3.65;;;;;;;13.45;63.20;101252.31;5007006;28;20034;-78
2022/05/19 02:04:42;;;;;;;7.45;3.53;;;;;;;13.39;63.42;101247.94;5013156;28;20034;-78
2022/05/19 02:07:11;;;;;;;5.30;3.90;;;;;;;13.33;63.52;101250.59;5009897;28;20096;-78
2022/05/19 02:09:44;;;;;;;4.50;3.40;;;;;;;13.31;63.27;101249.75;5014991;28;20048;-78
2022/05/19 02:12:09;;;;;;;5.28;3.50;;;;;;;13.26;63.82;101252.44;5015529;28;20044;-78
2022/05/19 02:14:40;;;;;;;6.65;3.78;;;;;;;13.26;64.00;101247.13;5012516;28;20043;-78
2022/05/19 02:17:08;;;;;;;4.90;3.45;;;;;;;13.28;63.69;101247.09;5009984;28;20034;-77
2022/05/19 02:19:46;;;;;;;4.68;3.13;;;;;;;13.25;63.31;101244.44;5009216;28;20072;-78
2022/05/19 02:22:16;;;;;;;5.78;3.45;;;;;;;13.23;63.94;101241.81;5006230;28;20041;-77
2022/05/19 02:24:49;;;;;;;4.90;3.33;;;;;;;13.18;64.47;101246.25;5010049;28;20472;-78
2022/05/19 02:27:38;;;;;;;5.13;2.95;;;;;;;13.13;64.56;101245.41;5012324;28;20120;-78
2022/05/19 02:30:08;;;;;;;6.72;3.40;;;;;;;13.09;64.28;101248.94;5010657;28;20041;-77
2022/05/19 02:32:35;;;;;;;10.18;3.50;;;;;;;13.00;64.78;101252.53;5007280;28;20056;-77
2022/05/19 02:35:01;;;;;;;5.63;3.13;;;;;;;12.95;64.39;101256.97;5008084;28;20543;-78
2022/05/19 02:37:28;;;;;;;5.95;3.30;;;;;;;12.92;64.61;101257.00;5007809;28;20046;-78
2022/05/19 02:39:53;;;;;;;8.57;3.72;;;;;;;12.89;64.30;101256.97;5009708;28;20034;-77
2022/05/19 02:42:18;;;;;;;5.15;3.40;;;;;;;12.89;65.03;101254.31;5008015;28;20045;-78
2022/05/19 02:44:43;;;;;;;6.90;3.58;;;;;;;12.88;65.14;101264.03;5011036;28;20094;-77
2022/05/19 02:47:09;;;;;;;4.47;3.13;;;;;;;12.81;65.70;101266.72;5007152;28;20033;-78
2022/05/19 02:49:34;;;;;;;4.15;2.92;;;;;;;12.81;65.73;101269.38;5009767;28;20046;-78
2022/05/19 02:52:00;;;;;;;5.55;3.38;;;;;;;12.82;65.87;101271.16;5009370;28;20029;-78
2022/05/19 02:54:25;;;;;;;4.50;3.00;;;;;;;12.84;65.65;101264.09;5010790;28;20489;-78
2022/05/19 02:56:50;;;;;;;3.88;3.03;;;;;;;12.81;65.55;101274.66;5008578;28;20038;-78
2022/05/19 02:59:16;;;;;;;5.93;3.63;;;;;;;12.79;66.00;101274.69;5011101;28;20525;-78
2022/05/19 03:01:41;;;;;;;7.00;3.20;;;;;;;12.69;65.91;101270.31;5008198;28;20577;-78
2022/05/19 03:04:07;;;;;;;5.50;3.28;;;;;;;12.64;66.04;101278.25;5008608;28;20689;-78
2022/05/19 03:06:32;;;;;;;4.93;3.05;;;;;;;12.58;67.24;101277.41;5000989;28;20485;-78
2022/05/19 03:08:58;;;;;;;4.85;3.55;;;;;;;12.55;67.06;101285.34;5007991;28;20084;-77
2022/05/19 03:11:23;;;;;;;5.10;3.33;;;;;;;12.53;67.96;101290.66;5002704;28;20038;-79
2022/05/19 03:13:48;;;;;;;5.75;3.92;;;;;;;12.52;67.55;101293.28;5002940;28;20046;-79
2022/05/19 03:16:14;;;;;;;5.25;3.35;;;;;;;12.53;66.77;101284.47;5011857;28;20042;-79
2022/05/19 03:18:39;;;;;;;6.45;3.67;;;;;;;12.54;66.52;101278.28;5012747;28;20089;-78
2022/05/19 03:21:04;;;;;;;6.20;3.50;;;;;;;12.54;67.62;101286.22;5012970;28;20041;-78
2022/05/19 03:23:30;;;;;;;6.22;4.57;;;;;;;12.52;67.08;101283.56;5013438;28;20030;-78
2022/05/19 03:25:55;;;;;;;6.03;3.72;;;;;;;12.52;67.12;101286.22;5012087;28;20042;-79
2022/05/19 03:28:21;;;;;;;5.07;3.55;;;;;;;12.46;67.15;101283.59;5015224;28;20053;-79
2022/05/19 03:30:46;;;;;;;5.13;3.05;;;;;;;12.42;67.06;101279.22;5008659;28;20043;-78
2022/05/19 03:33:12;;;;;;;8.20;3.42;;;;;;;12.44;67.02;101288.91;5014239;28;20088;-78
2022/05/19 03:35:37;;;;;;;8.32;4.15;;;;;;;12.43;68.13;101286.25;5012158;28;20132;-78
2022/05/19 03:38:03;;;;;;;4.60;3.20;;;;;;;12.48;67.38;101290.66;5002078;28;20038;-79
2022/05/19 03:40:28;;;;;;;7.75;3.53;;;;;;;12.53;67.04;101290.66;5017471;28;20040;-78
2022/05/19 03:42:54;;;;;;;5.88;3.67;;;;;;;12.52;67.67;101278.28;5014679;28;20579;-78
2022/05/19 03:45:19;;;;;;;7.50;3.53;;;;;;;12.57;67.87;101286.22;5034255;28;20069;-79
2022/05/19 03:47:44;;;;;;;7.43;3.58;;;;;;;12.63;67.13;101286.22;5008909;28;20117;-78
2022/05/19 03:50:10;;;;;;;5.95;3.75;;;;;;;12.70;66.90;101288.81;5008856;28;20065;-78
2022/05/19 03:52:37;;;;;;;6.18;3.55;;;;;;;12.78;66.91;101282.63;5001901;28;20057;-79
2022/05/19 03:55:03;;;;;;;5.50;3.35;;;;;;;12.74;67.28;101289.72;5008950;28;20034;-78
2022/05/19 03:57:28;;;;;;;5.75;3.30;;;;;;;12.79;66.67;101292.38;5013873;28;20541;-79
2022/05/19 03:59:53;;;;;;;4.65;3.00;;;;;;;12.84;66.74;101285.28;5012804;28;20049;-78
2022/05/19 04:04:49;;;;;;;5.57;3.15;;;;;;;12.99;66.94;101285.19;5011145;28;20050;-80
2022/05/19 04:07:48;;;;;;;7.03;3.42;;;;;;;13.10;66.48;101287.84;5024477;28;20228;-79
2022/05/19 04:10:14;;;;;;;5.15;3.55;;;;;;;13.21;65.75;101290.44;5018791;28;20053;-79
2022/05/19 04:12:51;;;;;;;10.82;3.97;;;;;;;13.30;66.64;101290.41;4986485;28;20039;-78
2022/05/19 04:15:17;;;;;;;6.38;3.40;;;;;;;13.41;66.09;101298.28;4994219;28;20509;-78
2022/05/19 04:17:42;;;;;;;4.93;3.20;;;;;;;13.51;66.21;101290.28;4983923;28;20147;-77
2022/05/19 04:20:09;;;;;;;5.97;3.35;;;;;;;13.66;65.72;101285.78;4992717;28;20481;-78
2022/05/19 04:22:35;;;;;;;5.55;3.38;;;;;;;13.76;65.37;101284.81;4994468;28;20034;-78
2022/05/19 04:25:02;;;;;;;6.88;3.70;;;;;;;13.88;64.74;101289.13;4995173;28;20030;-78
2022/05/19 04:27:28;;;;;;;5.68;3.83;;;;;;;13.98;64.06;101291.72;4990162;28;20512;-77
2022/05/19 04:29:54;;;;;;;5.47;3.45;;;;;;;14.11;64.27;101288.97;4990331;28;20101;-77
2022/05/19 04:32:20;;;;;;;7.13;3.33;;;;;;;14.23;64.12;101288.84;4991561;28;20038;-78
2022/05/19 04:34:47;;;;;;;10.57;3.80;;;;;;;14.35;63.88;101298.47;4989234;28;20041;-79
2022/05/19 04:37:12;;;;;;;5.25;3.30;;;;;;;14.41;64.29;101296.66;4990575;28;20038;-78
2022/05/19 04:39:38;;;;;;;6.00;3.33;;;;;;;14.50;64.23;101297.44;4993302;28;20043;-77
2022/05/19 04:42:08;;;;;;;5.45;3.40;;;;;;;14.64;63.72;101303.53;5002561;28;20026;-79
2022/05/19 04:44:34;;;;;;;6.45;3.47;;;;;;;14.76;62.34;101308.72;4989576;28;20034;-78
2022/05/19 04:46:59;;;;;;;7.05;3.88;;;;;;;14.89;62.76;101310.34;4994349;28;20034;-77
2022/05/19 04:49:24;;;;;;;8.25;5.93;;;;;;;15.06;62.10;101311.91;4998351;28;20061;-78
2022/05/19 04:51:50;;;;;;;8.57;5.22;;;;;;;15.22;61.45;101313.50;4991531;28;20047;-80
2022/05/19 05:18:09;;;;;;;5.72;2.60;;;;;;;16.40;56.30;101329.44;4818401;29;20110;-80
2022/05/19 05:54:59;;;;;;;;;;;;;;;;;;;;;
2022/05/19 06:02:33;;;;;;;5.65;2.05;;;;;;;18.12;50.42;101336.59;5017036;28;20530;-79
2022/05/19 06:30:46;;;;;;;7.18;3.58;;;;;;;19.76;45.97;101347.25;4955046;29;20062;-81
2022/05/19 06:51:55;;;;;;;6.35;2.70;;;;;;;20.28;45.69;101330.34;4984289;28;20042;-81
2022/05/19 06:55:15;;;;;;;;;;;;;;;;;;;;;
2022/05/19 06:58:05;;;;;;;6.93;3.13;;;;;;;20.62;45.06;101315.81;5038993;28;20033;-80
2022/05/19 07:00:34;;;;;;;9.10;4.20;;;;;;;20.78;45.31;101311.66;5037148;28;20128;-81
2022/05/19 07:03:01;;;;;;;8.25;4.05;;;;;;;20.91;45.22;101312.09;5012199;28;20045;-81
2022/05/19 07:05:36;;;;;;;6.18;3.33;;;;;;;21.06;44.49;101309.75;5037235;28;20037;-80
2022/05/19 07:08:18;;;;;;;9.32;5.88;;;;;;;21.14;44.45;101305.88;5020469;28;20046;-81
2022/05/19 07:10:44;;;;;;;8.43;4.82;;;;;;;21.15;44.41;101304.91;5027632;28;20042;-81
2022/05/19 07:13:12;;;;;;;7.07;3.20;;;;;;;21.25;43.96;101305.44;5026920;28;20507;-81
2022/05/19 07:15:45;;;;;;;6.22;2.50;;;;;;;21.18;42.60;101296.75;5027120;28;20109;-81
2022/05/19 07:18:10;;;;;;;9.02;3.60;;;;;;;21.25;43.62;101294.72;5028642;28;20072;-80
2022/05/19 07:20:44;;;;;;;8.35;4.53;;;;;;;21.33;43.38;101291.72;5027583;28;20128;-80
2022/05/19 07:23:14;;;;;;;6.60;4.00;;;;;;;21.51;43.12;101293.72;4995806;28;20033;-80
2022/05/19 07:25:48;;;;;;;4.95;3.13;;;;;;;21.74;42.78;101289.22;5031699;28;20034;-81
2022/05/19 07:28:20;;;;;;;;;;;;;;;21.86;41.71;101281.53;5016466;28;20054;-80
2022/05/19 07:30:58;;;;;;;7.32;3.90;;;;;;;22.02;41.74;101280.91;5010602;28;19924;-81
2022/05/19 07:33:58;;;;;;;8.43;3.50;;;;;;;22.01;40.48;101273.78;5012413;28;21406;-80
2022/05/19 07:45:06;;;;;;;;;;;;;;;;;;;;;
2022/05/19 08:37:03;;;;;;;8.10;4.68;;;;;;;24.21;36.94;101216.84;5343495;23;20050;-80
2022/05/19 08:46:25;;;;;;;9.82;3.00;;;;;;;24.36;35.55;101204.34;5005656;28;20041;-81
2022/05/19 08:49:29;;;;;;;3.72;1.48;;;;;;;24.48;34.73;101205.56;5017559;28;20062;-80
2022/05/19 08:54:48;;;;;;;4.93;2.70;;;;;;;24.53;34.71;101197.22;5078869;22;20528;-81
2022/05/19 08:57:25;;;;;;;7.18;2.95;;;;;;;24.62;34.38;101197.59;5003033;28;20513;-80
2022/05/19 09:04:03;;;;;;;5.95;3.05;;;;;;;24.95;34.14;101190.44;4995251;28;20049;-80
2022/05/19 09:18:36;;;;;;;6.55;2.40;;;;;;;25.47;32.37;101188.38;4984895;28;20083;-81
2022/05/19 09:22:26;;;;;;;9.55;2.10;;;;;;;25.51;31.54;101179.09;4986570;28;20069;-81
2022/05/19 09:29:55;;;;;;;5.30;1.90;;;;;;;25.76;31.48;101174.97;4845203;29;20126;-81
2022/05/19 09:32:56;;;;;;;3.75;1.58;;;;;;;25.90;30.51;101172.31;4845033;29;20552;-81
2022/05/19 09:35:34;;;;;;;3.60;1.92;;;;;;;26.07;30.72;101175.84;4865131;29;20057;-81
2022/05/19 09:38:13;;;;;;;6.88;2.70;;;;;;;26.35;30.62;101177.72;4886990;28;20362;-81
2022/05/19 09:40:42;;;;;;;2.80;1.30;;;;;;;26.65;30.17;101177.69;4982247;28;20070;-81
2022/05/19 09:43:24;;;;;;;18.58;4.22;;;;;;;26.75;29.09;101164.41;4985632;28;20027;-81
2022/05/19 09:46:00;;;;;;;7.70;3.30;;;;;;;26.88;30.37;101178.91;4986141;28;20038;-81
2022/05/19 09:49:02;;;;;;;7.45;2.70;;;;;;;27.07;29.64;101170.47;4987480;28;20039;-81
2022/05/19 09:51:48;;;;;;;6.25;2.22;;;;;;;27.08;28.62;101170.34;4998060;28;20050;-81
2022/05/19 09:54:16;;;;;;;4.30;1.60;;;;;;;27.13;28.80;101170.06;4999034;28;20042;-81
2022/05/19 09:56:47;;;;;;;5.18;2.33;;;;;;;27.23;28.59;101167.66;4998210;28;20417;-81
2022/05/19 10:02:31;;;;;;;5.80;2.65;;;;;;;27.36;28.12;101165.00;4946322;29;20044;-80
2022/05/19 10:04:59;;;;;;;4.10;2.35;;;;;;;27.74;28.35;101159.69;4979611;28;20051;-80
2022/05/19 10:07:29;;;;;;;4.47;2.30;;;;;;;28.01;28.18;101156.97;4986078;28;20494;-81
2022/05/19 10:10:06;;;;;;;5.68;2.97;;;;;;;28.27;27.75;101151.53;4976615;28;20090;-81
2022/05/19 10:12:44;;;;;;;6.85;2.65;;;;;;;28.14;26.22;101154.28;4980592;28;20098;-81
2022/05/19 10:15:16;;;;;;;4.57;1.83;;;;;;;28.03;26.21;101151.41;5001442;28;20046;-80
2022/05/19 10:17:50;;;;;;;7.82;1.90;;;;;;;28.10;27.03;101150.88;4986201;28;20038;-82
2022/05/19 10:20:27;;;;;;;5.05;1.73;;;;;;;28.17;26.53;101157.63;4981436;28;20058;-82
2022/05/19 10:23:30;;;;;;;4.57;2.67;;;;;;;28.33;25.34;101141.13;4984153;28;20057;-80
2022/05/19 10:26:29;;;;;;;6.07;2.50;;;;;;;28.34;25.36;101144.69;4997474;28;20109;-81
2022/05/19 10:32:27;;;;;;;4.22;1.70;;;;;;;28.55;25.59;101128.75;4981136;28;20034;-80
2022/05/19 10:35:14;;;;;;;5.65;2.10;;;;;;;28.90;25.97;101117.16;4996062;28;20041;-80
2022/05/19 10:38:02;;;;;;;6.30;2.75;;;;;;;29.20;24.90;101114.91;4981524;28;20085;-80
2022/05/19 10:40:50;;;;;;;6.88;1.92;;;;;;;29.45;24.83;101113.06;4979859;28;20047;-80
2022/05/19 10:43:49;;;;;;;3.88;1.70;;;;;;;29.42;23.28;101107.81;4979096;28;20027;-81
2022/05/19 10:46:15;;;;;;;3.85;1.60;;;;;;;29.68;24.25;101104.03;4978353;28;20094;-80
2022/05/19 10:49:03;;;;;;;20.70;4.05;;;;;;;29.99;23.49;101101.59;4979620;28;20045;-80
2022/05/19 10:51:44;;;;;;;5.15;3.05;;;;;;;30.28;23.62;101096.59;4981051;28;20391;-81
2022/05/19 10:54:40;;;;;;;8.95;2.92;;;;;;;30.56;23.55;101097.94;4975911;28;20027;-80
2022/05/19 10:57:20;;;;;;;7.00;1.85;;;;;;;30.64;23.70;101093.75;4980355;28;20038;-80
2022/05/19 10:59:48;;;;;;;4.93;1.90;;;;;;;30.54;23.04;101086.31;4980393;28;20126;-75
2022/05/19 11:05:34;;;;;;;4.85;2.92;;;;;;;30.63;23.79;101075.63;4680181;22;20050;-78
2022/05/19 11:12:12;;;;;;;4.65;1.70;;;;;;;30.94;22.30;101071.28;4981705;28;20070;-78
2022/05/19 11:19:49;;;;;;;6.05;2.65;;;;;;;31.33;22.17;101058.00;4971293;28;20071;-78
2022/05/19 11:41:50;;;;;;;4.60;2.20;;;;;;;32.80;19.09;101031.34;4956082;28;20123;-78
2022/05/19 11:55:12;;;;;;;4.03;2.20;;;;;;;32.87;18.46;101027.06;4892938;29;20500;-78
2022/05/19 11:55:25;;;;;;;3.78;2.10;;;;;;;33.41;18.48;101019.31;4889048;29;20036;-78
2022/05/19 11:58:20;;;;;;;3.70;2.05;;;;;;;33.82;17.94;101019.97;4944422;28;20556;-78
2022/05/19 12:01:07;;;;;;;8.45;2.90;;;;;;;34.02;17.97;101016.16;4977136;28;20035;-78
2022/05/19 12:08:09;;;;;;;3.80;1.90;;;;;;;34.67;16.43;101004.34;4935328;28;20520;-78
2022/05/19 12:11:18;;;;;;;3.42;1.50;;;;;;;34.81;16.46;100991.97;4972253;28;20105;-78
2022/05/19 12:14:37;;;;;;;;;;;;;;;;;;;;;
2022/05/19 12:17:52;;;;;;;4.57;2.40;;;;;;;35.93;16.52;100983.94;4850901;29;20044;-78
2022/05/19 12:21:00;;;;;;;3.72;2.55;;;;;;;36.45;16.10;100979.41;4975999;28;20042;-78
2022/05/19 12:23:38;;;;;;;6.13;2.42;;;;;;;35.92;15.24;100971.25;4972385;28;20393;-78
2022/05/19 12:26:11;;;;;;;4.65;1.60;;;;;;;36.04;15.30;100968.22;4972080;28;20043;-78
2022/05/19 12:28:50;;;;;;;4.80;1.80;;;;;;;36.13;15.11;100967.22;4975044;28;20046;-78
2022/05/19 12:34:08;;;;;;;3.92;1.48;;;;;;;35.86;15.24;100965.53;4971838;28;20027;-78
2022/05/19 12:36:40;;;;;;;6.30;3.20;;;;;;;35.76;15.19;100974.78;4990083;28;20066;-78
2022/05/19 12:39:09;;;;;;;5.15;1.58;;;;;;;35.76;15.05;100969.28;4958712;28;20709;-78
2022/05/19 12:41:54;;;;;;;4.68;1.77;;;;;;;35.85;14.25;100958.34;4973655;28;20038;-78
2022/05/19 12:44:34;;;;;;;5.68;1.98;;;;;;;36.08;15.39;100964.13;4973623;28;20078;-77
2022/05/19 12:47:12;;;;;;;3.88;1.83;;;;;;;36.32;14.93;100961.47;4972191;28;20409;-78
2022/05/19 12:49:38;;;;;;;5.15;2.10;;;;;;;36.82;15.19;100946.81;4953709;28;20061;-78
2022/05/19 12:52:17;;;;;;;6.25;2.90;;;;;;;36.86;14.16;100952.84;4974405;28;20034;-78
2022/05/19 12:55:27;;;;;;;6.22;2.97;;;;;;;36.54;14.70;100951.72;4976297;28;20039;-78
2022/05/19 12:57:57;;;;;;;4.90;2.55;;;;;;;36.25;15.17;100957.66;4974894;28;20090;-78
2022/05/19 13:00:37;;;;;;;3.80;2.22;;;;;;;36.54;14.01;100959.97;4980310;28;20054;-78
2022/05/19 13:03:11;;;;;;;3.72;1.85;;;;;;;37.08;13.43;100953.25;4975156;28;20494;-78
2022/05/19 13:05:57;;;;;;;3.55;1.90;;;;;;;37.81;13.32;100950.38;4973111;28;20053;-78
2022/05/19 13:08:32;;;;;;;5.07;2.03;;;;;;;37.90;13.47;100952.03;4980574;28;20038;-78
2022/05/19 13:11:03;;;;;;;6.63;2.92;;;;;;;37.90;13.64;100946.53;4976480;28;20030;-78
2022/05/19 13:13:40;;;;;;;10.27;2.20;;;;;;;37.96;13.26;100939.44;4957491;28;20023;-78
2022/05/19 13:16:17;;;;;;;7.13;2.92;;;;;;;38.46;12.88;100935.44;4974771;28;20030;-78
2022/05/19 13:18:49;;;;;;;6.25;2.10;;;;;;;38.21;11.41;100931.13;4956940;28;20460;-78
2022/05/19 13:21:24;;;;;;;9.57;2.00;;;;;;;38.52;12.03;100920.94;4973885;28;20027;-78
2022/05/19 13:23:50;;;;;;;4.40;1.58;;;;;;;38.43;12.17;100912.91;4973704;28;20046;-78
2022/05/19 13:26:27;;;;;;;5.78;2.95;;;;;;;38.26;12.34;100918.50;4973909;28;20046;-78
2022/05/19 13:32:01;;;;;;;3.38;1.75;;;;;;;37.57;11.95;100909.13;4986696;28;20038;-78
2022/05/19 13:34:27;;;;;;;4.35;2.17;;;;;;;38.08;11.64;100909.66;4970428;28;20035;-78
2022/05/19 13:36:57;;;;;;;5.50;2.55;;;;;;;38.58;11.97;100900.91;4973582;28;20042;-78
2022/05/19 13:39:23;;;;;;;3.08;1.75;;;;;;;38.92;10.42;100904.28;4977829;28;20726;-78
2022/05/19 13:41:51;;;;;;;5.25;3.13;;;;;;;39.65;11.48;100891.66;4973005;28;20081;-78
2022/05/19 13:44:27;;;;;;;4.90;2.83;;;;;;;40.64;10.42;100880.06;4973031;28;20038;-78
2022/05/19 13:46:53;;;;;;;4.78;3.33;;;;;;;40.60;10.11;100879.63;4989286;28;20477;-78
2022/05/19 13:49:22;;;;;;;8.25;3.97;;;;;;;41.42;10.31;100883.72;4973264;28;20068;-78
2022/05/19 13:51:49;;;;;;;5.18;3.10;;;;;;;41.60;8.61;100877.66;4973443;28;20091;-78
2022/05/19 13:54:31;;;;;;;8.32;2.67;;;;;;;41.51;9.55;100870.59;4955182;28;20022;-78
2022/05/19 13:57:03;;;;;;;7.35;2.38;;;;;;;40.64;9.80;100864.34;4971550;28;20042;-78
2022/05/19 13:59:31;;;;;;;6.38;1.85;;;;;;;39.70;9.94;100866.22;4973800;28;20066;-78
2022/05/19 14:02:06;;;;;;;4.40;1.92;;;;;;;39.58;9.61;100863.06;4973673;28;20521;-79
2022/05/19 14:04:33;;;;;;;5.53;1.85;;;;;;;39.07;10.67;100858.28;4971283;28;20622;-78
2022/05/19 14:07:00;;;;;;;5.68;1.50;;;;;;;39.43;10.64;100860.31;4972982;28;20509;-78
2022/05/19 14:09:40;;;;;;;4.95;2.17;;;;;;;39.73;10.82;100850.09;4969371;28;20047;-78
2022/05/19 14:12:22;;;;;;;4.53;1.77;;;;;;;39.50;10.40;100854.88;4977238;28;20038;-78
2022/05/19 14:14:51;;;;;;;3.40;1.75;;;;;;;39.25;11.32;100844.13;4976309;28;20042;-77
2022/05/19 14:17:17;;;;;;;4.25;1.63;;;;;;;38.54;11.22;100836.16;4973775;28;20039;-78
2022/05/19 14:19:44;;;;;;;3.38;1.70;;;;;;;38.16;11.83;100835.19;4973582;28;20041;-78
2022/05/19 14:22:12;;;;;;;4.30;1.60;;;;;;;38.02;11.52;100841.47;4974620;28;20058;-79
2022/05/19 14:24:40;;;;;;;5.55;1.60;;;;;;;37.60;12.10;100832.56;4972436;28;20094;-78
2022/05/19 14:27:06;;;;;;;3.60;1.67;;;;;;;37.65;11.78;100826.47;4989030;28;20038;-79
2022/05/19 14:29:34;;;;;;;3.42;1.60;;;;;;;37.31;11.96;100832.25;4974373;28;20038;-79
2022/05/19 14:32:16;;;;;;;4.47;1.90;;;;;;;37.22;12.66;100820.44;4988388;28;20039;-79
2022/05/19 14:34:43;;;;;;;4.78;1.80;;;;;;;36.97;12.78;100822.34;4971221;28;20023;-80
2022/05/19 14:37:16;;;;;;;3.95;1.40;;;;;;;36.37;12.17;100816.19;4991732;28;20034;-78
2022/05/19 14:39:53;;;;;;;4.03;1.70;;;;;;;36.47;12.75;100818.75;4974407;28;20486;-76
2022/05/19 14:45:16;;;;;;;4.13;1.92;;;;;;;39.14;10.61;100812.28;4971791;28;20035;-76
2022/05/19 14:47:50;;;;;;;5.45;1.98;;;;;;;39.08;10.71;100809.44;4972236;28;20038;-76
2022/05/19 14:50:22;;;;;;;4.50;1.80;;;;;;;39.38;10.63;100804.78;4972290;28;20101;-77
2022/05/19 14:52:50;;;;;;;3.95;1.40;;;;;;;38.58;11.24;100811.81;4971874;28;20041;-76
2022/05/19 14:55:33;;;;;;;6.30;2.50;;;;;;;37.65;11.51;100810.84;4971163;28;20477;-76
2022/05/19 14:58:01;;;;;;;6.05;1.27;;;;;;;36.35;12.27;100817.38;4970984;28;20030;-76
2022/05/19 15:00:31;;;;;;;2.17;1.40;;;;;;;35.74;13.23;100808.47;4971284;28;20041;-76
2022/05/19 15:02:56;;;;;;;3.60;2.10;;;;;;;37.17;12.11;100806.34;4971230;28;20132;-75
2022/05/19 15:05:24;;;;;;;6.97;3.00;;;;;;;38.57;11.85;100801.84;4973814;28;20457;-76
2022/05/19 15:07:53;;;;;;;3.78;2.03;;;;;;;40.20;10.66;100789.88;4975342;28;20045;-75
2022/05/19 15:10:23;;;;;;;5.13;2.75;;;;;;;41.34;10.35;100793.34;4975453;28;20046;-77
2022/05/19 15:12:50;;;;;;;4.97;2.80;;;;;;;41.68;9.89;100790.75;4975124;28;20110;-76
2022/05/19 15:15:17;;;;;;;3.58;2.10;;;;;;;42.17;9.90;100784.94;4975163;28;20101;-76
2022/05/19 15:17:43;;;;;;;4.10;2.72;;;;;;;42.79;9.84;100773.69;4991682;28;20467;-76
2022/05/19 15:20:10;;;;;;;6.53;2.97;;;;;;;43.23;9.72;100766.56;4975108;28;20125;-75
2022/05/19 15:22:36;;;;;;;3.50;2.28;;;;;;;43.40;9.61;100766.94;4974329;28;20762;-76
2022/05/19 15:25:02;;;;;;;7.38;3.83;;;;;;;43.28;9.72;100761.19;4973472;28;20027;-76
2022/05/19 15:27:34;;;;;;;3.88;2.63;;;;;;;43.41;9.04;100758.34;4973798;28;20378;-76
2022/05/19 15:30:00;;;;;;;8.25;3.58;;;;;;;43.80;9.68;100747.28;4972485;28;20119;-76
2022/05/19 15:32:26;;;;;;;6.00;3.10;;;;;;;44.04;9.13;100745.66;4974199;28;20600;-76
2022/05/19 15:34:52;;;;;;;3.92;2.30;;;;;;;43.93;9.55;100738.88;4974833;28;20474;-76
2022/05/19 15:37:19;;;;;;;4.25;2.33;;;;;;;43.75;9.34;100736.84;4975031;28;20042;-77
2022/05/19 15:39:45;;;;;;;4.78;2.92;;;;;;;43.84;9.39;100735.50;4974629;28;20037;-77
2022/05/19 15:42:13;;;;;;;5.75;3.53;;;;;;;43.96;9.38;100736.47;4958039;28;20073;-76
2022/05/19 15:44:39;;;;;;;4.57;2.35;;;;;;;44.15;9.23;100733.78;4975280;28;20034;-73
2022/05/19 15:47:07;;;;;;;6.30;2.67;;;;;;;44.53;8.92;100732.88;4975144;28;20042;-73
2022/05/19 15:49:32;;;;;;;3.90;2.70;;;;;;;44.83;8.92;100736.66;4975062;28;20062;-73
2022/05/19 15:51:58;;;;;;;5.80;2.67;;;;;;;45.13;8.82;100740.59;4957388;28;20034;-72
2022/05/19 15:54:23;;;;;;;6.13;2.53;;;;;;;44.95;9.06;100733.09;4977269;28;20039;-72
2022/05/19 15:56:49;;;;;;;4.47;2.30;;;;;;;42.71;10.44;100733.13;4975049;28;20050;-72
2022/05/19 15:59:17;;;;;;;3.70;1.60;;;;;;;40.30;11.57;100741.50;4975005;28;20122;-72
2022/05/19 16:01:43;;;;;;;4.75;1.80;;;;;;;40.08;11.40;100732.31;4974714;28;20505;-72
2022/05/19 16:04:09;;;;;;;7.72;3.50;;;;;;;40.66;11.76;100734.13;4974645;28;20042;-73
2022/05/19 16:06:34;;;;;;;8.38;3.13;;;;;;;40.89;11.63;100739.41;4974894;28;20042;-71
2022/05/19 16:08:59;;;;;;;8.27;2.80;;;;;;;40.09;11.81;100739.59;4974652;28;20118;-71
2022/05/19 16:11:25;;;;;;;3.13;1.40;;;;;;;39.24;12.23;100734.72;4974515;28;20045;-70
2022/05/19 16:13:50;;;;;;;8.15;2.42;;;;;;;37.87;13.07;100748.56;4974677;28;20026;-70
2022/05/19 16:16:18;;;;;;;3.58;1.38;;;;;;;37.37;14.09;100741.59;4974005;28;20528;-70